Stations météo

réclame
Mon MeteoGroup
Mont-Rigi, Belgique (6494): Température de l'air & dewpoint: 18.08.2019 00:00:00 - 24.08.2019 00:00:00 (CEST)Mont-Rigi, Belgique (6494): Vitesse du vent & gusts: 18.08.2019 00:00:00 - 24.08.2019 00:00:00 (CEST)Mont-Rigi, Belgique (6494): Direction du vent: 18.08.2019 00:00:00 - 24.08.2019 00:00:00 (CEST)Mont-Rigi, Belgique (6494): reduced air pressure: 18.08.2019 00:00:00 - 24.08.2019 00:00:00 (CEST)Mont-Rigi, Belgique (6494): Ensoleillement: 18.08.2019 00:00:00 - 24.08.2019 00:00:00 (CEST)Mont-Rigi, Belgique (6494): Quantités de précipitations: 18.08.2019 00:00:00 - 24.08.2019 00:00:00 (CEST)
Date & Time tt [°C] td [°C] ff [km/h] ff [knt] fx [km/h] fx [knt] dd ppp [hPa] sd [min] rr [mm]
24.08.2019 00:00:00 16,7 8,5 9 5 18 10 E 1022,6 0 0,0
23.08.2019 23:00:00 14,8 7,1 7 4 19 10 ENE 1023,5 0 0,0
23.08.2019 22:00:00 14,7 8,1 7 4 12 7 ENE 1023,6 0 0,0
23.08.2019 21:00:00 15,8 7,8 5 3 11 6 ENE 1023,6 0 0,0
23.08.2019 20:00:00 19,5 7,8 7 4 18 10 ENE 1022,4 0 0,0
23.08.2019 19:00:00 22,6 8,7 6 4 16 9 E 1021,6 15 0,0
23.08.2019 18:00:00 23,8 8,9 9 5 19 10 E 1021,9 48 0,0
23.08.2019 17:00:00 - - - - - - - - - -
23.08.2019 16:00:00 24,2 7,3 6 3 19 10 WSW 1022,4 0 0,0
23.08.2019 15:00:00 23,8 9,0 9 5 19 10 SSE 1022,9 0 0,0
23.08.2019 14:00:00 23,6 10,3 7 4 18 10 E 1023,1 0 0,0
23.08.2019 13:00:00 22,4 9,3 6 3 19 11 SSW 1024,0 0 0,0
23.08.2019 12:00:00 21,6 9,3 8 4 21 11 SE 1024,4 0 0,0
23.08.2019 11:00:00 21,0 10,6 5 3 18 10 E 1024,5 0 0,0
23.08.2019 10:00:00 19,7 10,7 8 4 17 9 E 1025,2 0 0,0
23.08.2019 09:00:00 18,2 11,0 8 4 18 10 E 1025,3 0 0,0
23.08.2019 08:00:00 14,5 9,7 11 6 14 8 ENE 1025,9 0 0,0
23.08.2019 07:00:00 11,2 8,6 8 4 11 6 ENE 1026,7 0 0,0
23.08.2019 06:00:00 11,4 8,5 6 4 10 5 NE 1026,7 0 0,0
23.08.2019 05:00:00 12,6 7,9 8 5 14 8 ENE 1026,4 0 0,0
23.08.2019 04:00:00 12,7 8,1 9 5 13 7 ENE 1026,3 0 0,0
23.08.2019 03:00:00 12,6 8,4 9 5 14 7 ENE 1026,5 0 0,0
23.08.2019 02:00:00 12,4 8,6 7 4 12 6 ENE 1026,6 0 0,0
23.08.2019 01:00:00 12,4 9,2 8 4 11 6 NE 1026,7 0 0,0
23.08.2019 00:00:00 12,3 9,2 5 3 9 5 NNE 1026,7 0 0,0
22.08.2019 23:00:00 12,9 9,2 5 3 9 5 N 1026,6 0 0,0
22.08.2019 22:00:00 12,9 8,8 5 3 8 5 NNE 1026,4 0 0,0
22.08.2019 21:00:00 14,2 8,7 5 3 9 5 N 1025,8 0 0,0
22.08.2019 20:00:00 18,4 9,4 7 4 8 5 NW 1024,5 0 0,0
22.08.2019 19:00:00 21,0 8,8 6 4 12 7 WNW 1023,6 0 0,0
22.08.2019 18:00:00 21,5 7,0 4 2 16 8 NE 1023,6 0 0,0
22.08.2019 17:00:00 21,6 7,2 7 4 15 8 S 1023,7 0 0,0
22.08.2019 16:00:00 21,6 7,5 5 3 16 9 WSW 1023,8 0 0,0
22.08.2019 15:00:00 21,0 6,6 5 3 18 10 W 1024,4 0 0,0
22.08.2019 14:00:00 20,4 6,7 7 4 18 10 WSW 1024,8 0 0,0
22.08.2019 13:00:00 19,7 6,5 6 3 14 7 SW 1025,0 0 0,0
22.08.2019 12:00:00 19,0 7,0 8 4 20 11 S 1025,3 0 0,0
22.08.2019 11:00:00 17,7 7,1 12 6 18 10 S 1025,8 0 0,0
22.08.2019 10:00:00 16,6 7,2 12 6 18 10 S 1025,8 0 0,0
22.08.2019 09:00:00 15,7 9,2 7 4 9 5 S 1025,6 0 0,0
22.08.2019 08:00:00 10,2 8,1 4 2 9 5 SE 1027,0 0 0,0
22.08.2019 07:00:00 8,8 6,9 8 4 9 5 SE 1027,2 0 0,0
22.08.2019 06:00:00 9,3 6,8 8 4 10 5 SE 1027,2 0 0,0
22.08.2019 05:00:00 8,4 5,2 6 4 11 6 SE 1027,6 0 0,0
22.08.2019 04:00:00 10,1 6,0 10 5 12 6 SE 1027,0 0 0,0
22.08.2019 03:00:00 10,2 5,3 9 5 14 8 SE 1027,1 0 0,0
22.08.2019 02:00:00 10,9 5,6 11 6 15 8 SE 1027,0 0 0,0
22.08.2019 01:00:00 10,8 5,8 5 3 13 7 ESE 1027,3 0 0,0
22.08.2019 00:00:00 12,0 6,7 7 4 14 8 E 1027,3 0 0,0
21.08.2019 23:00:00 11,9 7,2 7 4 14 7 E 1027,1 0 0,0
21.08.2019 22:00:00 11,2 8,2 7 4 10 5 ENE 1027,6 0 0,0
21.08.2019 21:00:00 12,5 8,8 5 3 8 4 NE 1027,0 0 0,0
21.08.2019 20:00:00 16,5 9,4 4 2 9 5 NNE 1025,8 0 0,0
21.08.2019 19:00:00 17,4 8,7 5 3 9 5 N 1025,8 0 0,0
21.08.2019 18:00:00 - - - - - - - - - -
21.08.2019 17:00:00 18,4 5,6 7 4 12 7 SE 1026,0 0 0,0
21.08.2019 16:00:00 18,7 6,3 6 3 12 6 S 1026,1 0 0,0
21.08.2019 15:00:00 - - - - - - - - - -
21.08.2019 14:00:00 18,3 6,5 11 6 20 11 SSE 1026,9 0 0,0
21.08.2019 13:00:00 17,2 7,7 10 5 18 10 SSW 1027,4 0 0,0
21.08.2019 12:00:00 17,0 7,4 9 5 19 11 SW 1027,8 0 0,0
21.08.2019 11:00:00 16,0 8,0 8 5 18 10 SSW 1028,3 0 0,0
21.08.2019 10:00:00 14,5 9,6 9 5 16 8 S 1028,2 0 0,0
21.08.2019 09:00:00 12,6 10,0 8 4 11 6 SE 1028,1 0 0,0
21.08.2019 08:00:00 8,7 8,2 4 2 8 4 E 1029,3 0 0,0
21.08.2019 07:00:00 7,8 7,2 5 3 8 5 E 1029,3 0 0,0
21.08.2019 06:00:00 7,8 7,3 5 3 9 5 E 1028,8 0 0,0
21.08.2019 05:00:00 8,2 7,6 5 3 11 6 ENE 1028,6 0 0,0
21.08.2019 04:00:00 8,2 7,6 7 4 10 5 ENE 1028,6 0 0,0
21.08.2019 03:00:00 7,9 7,2 6 3 7 4 NE 1028,7 0 0,0
21.08.2019 02:00:00 8,1 7,3 7 4 8 5 N 1028,6 0 0,0
21.08.2019 01:00:00 8,4 7,5 4 2 10 5 N 1028,4 0 0,0
21.08.2019 00:00:00 9,0 8,1 6 3 10 5 WNW 1027,9 0 0,0
20.08.2019 23:00:00 8,3 7,1 4 2 8 5 W 1027,6 0 0,0
20.08.2019 22:00:00 9,8 7,2 5 3 9 5 W 1027,0 0 0,0
20.08.2019 21:00:00 10,9 7,0 4 2 12 6 W 1026,2 0 0,0
20.08.2019 20:00:00 15,0 7,5 7 4 15 8 W 1024,6 0 0,0
20.08.2019 19:00:00 15,8 7,4 8 5 24 13 W 1024,0 0 0,0
20.08.2019 18:00:00 16,3 7,3 11 6 22 12 W 1023,2 0 0,0
20.08.2019 17:00:00 16,2 8,1 11 6 21 12 WNW 1023,5 0 0,0
20.08.2019 16:00:00 16,4 8,1 14 8 31 17 W 1023,0 0 0,0
20.08.2019 15:00:00 - - - - - - - - - -
20.08.2019 14:00:00 15,6 7,6 14 8 29 15 WSW 1022,9 0 0,0
20.08.2019 13:00:00 15,5 7,7 11 6 25 14 WSW 1022,7 0 0,0
20.08.2019 12:00:00 14,3 7,9 13 7 21 11 WSW 1022,8 0 0,0
20.08.2019 11:00:00 13,5 8,6 12 6 19 10 WSW 1022,7 0 0,0
20.08.2019 10:00:00 12,3 9,1 11 6 18 10 SW 1022,5 0 0,0
20.08.2019 09:00:00 10,9 10,4 11 6 20 11 WSW 1022,8 0 0,0
20.08.2019 08:00:00 8,3 7,9 7 4 15 8 WSW 1023,4 0 0,0
20.08.2019 07:00:00 7,0 6,5 8 4 13 7 WSW 1023,2 0 0,0
20.08.2019 06:00:00 5,4 4,6 5 3 7 4 SW 1023,5 0 0,0
20.08.2019 05:00:00 6,0 4,9 5 3 9 5 SW 1023,3 0 0,0
20.08.2019 04:00:00 6,9 5,6 5 3 15 8 SW 1022,8 0 0,0
20.08.2019 03:00:00 7,4 6,2 6 3 11 6 WSW 1022,8 0 0,0
20.08.2019 02:00:00 8,1 6,9 7 4 13 7 WSW 1022,6 0 0,0
20.08.2019 01:00:00 8,7 6,9 6 3 12 7 SW 1022,4 0 0,0
20.08.2019 00:00:00 11,2 8,4 7 4 17 9 WSW 1021,2 0 0,0
19.08.2019 23:00:00 10,6 7,9 6 3 11 6 SW 1020,9 0 0,0
19.08.2019 22:00:00 9,8 7,2 5 3 10 5 SSW 1020,7 0 0,0
19.08.2019 21:00:00 11,4 7,4 5 3 15 8 SW 1019,9 0 0,0
19.08.2019 20:00:00 15,1 7,8 11 6 22 12 SW 1018,4 0 0,0
19.08.2019 19:00:00 15,7 8,3 14 8 26 14 SW 1018,0 0 0,0
19.08.2019 18:00:00 16,2 7,9 18 10 32 18 SW 1017,9 0 0,0
19.08.2019 17:00:00 16,4 7,9 16 9 28 15 WSW 1017,7 0 0,0
19.08.2019 16:00:00 16,7 8,9 17 9 36 19 SW 1017,5 0 0,0
19.08.2019 15:00:00 16,4 8,1 19 10 31 17 WSW 1017,2 0 0,0
19.08.2019 14:00:00 17,6 9,1 22 12 38 21 WSW 1016,6 0 0,0
19.08.2019 13:00:00 16,7 9,0 22 12 35 19 SW 1016,9 0 0,0
19.08.2019 12:00:00 15,3 8,7 20 11 29 16 SW 1017,3 0 0,0
19.08.2019 11:00:00 13,7 9,3 18 10 31 17 SW 1017,5 9 0,0
19.08.2019 10:00:00 12,3 10,5 17 9 31 17 SW 1017,2 0 0,0
19.08.2019 09:00:00 10,8 10,1 20 11 30 16 SW 1017,3 0 0,0
19.08.2019 08:00:00 9,7 9,2 14 8 21 11 SW 1017,1 0 0,0
19.08.2019 07:00:00 8,2 7,5 13 7 19 10 SW 1017,1 0 0,0
19.08.2019 06:00:00 8,5 8,0 11 6 18 10 SW 1016,5 0 0,0
19.08.2019 05:00:00 8,9 8,3 11 6 18 10 SW 1016,3 0 0,0
19.08.2019 04:00:00 9,8 9,2 11 6 19 10 WSW 1015,4 0 0,0
19.08.2019 03:00:00 10,3 9,7 11 6 18 10 WSW 1015,3 0 0,0
19.08.2019 02:00:00 10,1 9,4 11 6 16 9 SW 1015,3 0 0,0
19.08.2019 01:00:00 10,4 9,0 11 6 24 13 WSW 1014,4 0 0,0
19.08.2019 00:00:00 11,0 9,8 14 8 28 15 WSW 1013,8 0 0,0
18.08.2019 23:00:00 12,5 12,2 16 9 28 15 WSW 1012,8 0 0,0
18.08.2019 22:00:00 12,2 11,8 12 6 18 10 SW 1012,2 0 0,0
18.08.2019 21:00:00 12,9 12,3 11 6 19 11 SW 1011,6 0 0,0
18.08.2019 20:00:00 13,8 13,1 11 6 21 12 SW 1010,8 0 0,0
18.08.2019 19:00:00 14,0 13,7 13 7 30 16 WSW 1010,8 0 0,0
18.08.2019 18:00:00 14,2 13,9 16 8 39 21 W 1010,2 0 0,0
18.08.2019 17:00:00 15,4 15,1 19 10 44 24 WSW 1009,1 0 0,0
18.08.2019 16:00:00 16,3 15,7 22 12 46 25 WSW 1007,8 0 0,0
18.08.2019 15:00:00 16,8 16,5 19 11 39 21 SSW 1006,5 0 0,0
18.08.2019 14:00:00 16,7 16,3 22 12 54 29 SW 1006,5 0 0,0
18.08.2019 13:00:00 16,5 16,4 34 18 54 29 SW 1005,8 0 0,0
18.08.2019 12:00:00 16,4 16,3 27 15 49 26 SSW 1004,9 0 0,0
18.08.2019 11:00:00 - - - - - - - - - -
18.08.2019 10:00:00 15,2 15,1 21 11 36 20 S 1004,9 0 0,0
18.08.2019 09:00:00 - - - - - - - - - -
18.08.2019 08:00:00 12,5 12,3 11 6 20 11 S 1007,2 0 0,0
18.08.2019 07:00:00 12,1 11,9 12 7 23 12 SSW 1007,8 0 0,0
18.08.2019 06:00:00 12,1 11,9 10 6 16 9 SSW 1008,4 0 0,0
18.08.2019 05:00:00 11,3 11,1 11 6 19 11 SW 1009,1 0 0,0
18.08.2019 04:00:00 11,3 11,1 13 7 31 17 W 1009,6 0 0,0
18.08.2019 03:00:00 14,9 14,8 17 9 29 16 S 1008,3 0 0,0
18.08.2019 02:00:00 14,9 14,8 18 10 27 15 S 1008,8 0 0,0
18.08.2019 01:00:00 14,8 14,7 14 8 27 15 S 1009,2 0 0,0
18.08.2019 00:00:00 14,8 14,7 15 8 27 15 S 1009,6 0 0,0

tt = Température de l'air
td = dewpoint
ff = Vitesse du vent
fx = gusts
dd = Direction du vent
ppp = reduced air pressure
sd = Ensoleillement
rr = Quantités de précipitations

stations d'obs. à proximité